createdAt,value
2023-05-16T00:04:17.937Z,72.30
2023-05-16T00:09:22.830Z,72.30
2023-05-16T00:14:30.283Z,72.60
2023-05-16T00:19:35.830Z,72.70
2023-05-16T00:24:40.892Z,72.90
2023-05-16T00:29:46.857Z,72.90
2023-05-16T00:34:51.416Z,73.20
2023-05-16T00:39:56.353Z,73.30
2023-05-16T00:45:02.315Z,73.20
2023-05-16T00:50:08.007Z,73.10
2023-05-16T00:55:12.877Z,73.00
2023-05-16T01:00:22.899Z,73.00
2023-05-16T01:05:28.132Z,73.10
2023-05-16T01:10:39.166Z,73.20
2023-05-16T01:15:51.325Z,73.20
2023-05-16T01:21:01.338Z,73.30
2023-05-16T01:26:18.196Z,73.30
2023-05-16T01:31:23.795Z,73.40
2023-05-16T01:36:37.408Z,73.40
2023-05-16T01:41:49.717Z,73.60
2023-05-16T01:47:00.789Z,73.60
2023-05-16T01:52:11.349Z,73.60
2023-05-16T01:57:18.798Z,73.50
2023-05-16T02:02:23.653Z,73.60
2023-05-16T02:07:28.562Z,73.70
2023-05-16T02:12:34.601Z,73.80
2023-05-16T02:17:39.436Z,73.70
2023-05-16T02:22:44.595Z,73.50
2023-05-16T02:27:50.784Z,73.70
2023-05-16T02:32:55.971Z,73.80
2023-05-16T02:38:00.672Z,73.80
2023-05-16T02:43:06.996Z,73.90
2023-05-16T02:48:13.588Z,73.90
2023-05-16T02:53:19.242Z,74.00
2023-05-16T02:58:25.295Z,74.10
2023-05-16T03:03:30.709Z,74.20
2023-05-16T03:08:37.545Z,74.30
2023-05-16T03:13:43.846Z,74.30
2023-05-16T03:18:48.572Z,74.50
2023-05-16T03:23:55.373Z,74.40
2023-05-16T03:29:01.329Z,74.50
2023-05-16T03:34:06.302Z,74.60
2023-05-16T03:39:11.802Z,74.60
2023-05-16T03:44:17.975Z,74.70
2023-05-16T03:49:28.651Z,74.70
2023-05-16T03:54:33.548Z,74.70
2023-05-16T03:59:41.246Z,74.40
2023-05-16T04:04:46.152Z,74.40
2023-05-16T04:09:50.977Z,74.60
2023-05-16T04:14:58.100Z,74.60
2023-05-16T04:20:02.924Z,74.50
2023-05-16T04:25:08.584Z,74.60
2023-05-16T04:30:16.167Z,74.60
2023-05-16T04:35:21.985Z,74.40
2023-05-16T04:40:27.585Z,74.40
2023-05-16T04:45:36.621Z,74.40
2023-05-16T04:50:42.165Z,74.40
2023-05-16T04:55:46.716Z,74.40
2023-05-16T05:00:53.493Z,74.40
2023-05-16T05:05:58.403Z,74.40
2023-05-16T05:11:03.252Z,74.40
2023-05-16T05:16:09.393Z,74.40
2023-05-16T05:21:14.069Z,74.50
2023-05-16T05:26:19.230Z,74.60
2023-05-16T05:31:25.633Z,74.50
2023-05-16T05:36:31.220Z,74.50
2023-05-16T05:41:35.995Z,74.60
2023-05-16T05:46:42.320Z,74.30
2023-05-16T05:51:47.085Z,73.80
2023-05-16T05:56:52.124Z,73.30
2023-05-16T06:02:01.063Z,74.10
2023-05-16T06:07:05.756Z,73.90
2023-05-16T06:12:11.071Z,74.00
2023-05-16T06:17:19.463Z,74.20
2023-05-16T06:22:24.458Z,74.00
2023-05-16T06:27:29.509Z,74.10
2023-05-16T06:32:35.874Z,74.10
2023-05-16T06:37:42.701Z,74.20
2023-05-16T06:42:49.931Z,74.20
2023-05-16T06:47:57.605Z,74.00
2023-05-16T06:53:02.534Z,74.10
2023-05-16T06:58:07.559Z,74.00
2023-05-16T07:03:13.757Z,74.00
2023-05-16T07:08:19.218Z,72.10
2023-05-16T07:13:23.863Z,69.60
2023-05-16T07:18:31.674Z,69.20
2023-05-16T07:23:36.731Z,69.80
2023-05-16T07:28:41.900Z,69.80
2023-05-16T07:33:49.369Z,68.90
2023-05-16T07:38:54.039Z,69.40
2023-05-16T07:43:58.721Z,69.50
2023-05-16T07:49:05.143Z,68.60
2023-05-16T07:54:09.994Z,68.30
2023-05-16T07:59:15.184Z,67.20
2023-05-16T08:04:21.885Z,67.30
2023-05-16T08:09:26.590Z,66.30
2023-05-16T08:14:33.210Z,66.30
2023-05-16T08:19:39.377Z,66.40
2023-05-16T08:24:44.198Z,65.80
2023-05-16T08:29:48.788Z,66.60
2023-05-16T08:34:54.823Z,67.00
2023-05-16T08:40:00.276Z,64.90
2023-05-16T08:45:06.771Z,65.90
2023-05-16T08:50:13.819Z,65.70
2023-05-16T08:55:19.223Z,66.20
2023-05-16T09:00:24.813Z,66.00
2023-05-16T09:05:33.331Z,65.60
2023-05-16T09:10:38.422Z,65.70
2023-05-16T09:15:44.191Z,65.80
2023-05-16T09:20:53.773Z,66.60
2023-05-16T09:26:00.200Z,66.00
2023-05-16T09:31:05.016Z,65.20
2023-05-16T09:36:12.326Z,63.10
2023-05-16T09:41:17.295Z,63.60
2023-05-16T09:46:22.333Z,63.80
2023-05-16T09:51:29.357Z,65.40
2023-05-16T09:56:55.228Z,66.30
2023-05-16T10:02:02.190Z,66.70
2023-05-16T10:07:10.974Z,66.80
2023-05-16T10:12:17.417Z,67.10
2023-05-16T10:17:22.365Z,67.30
2023-05-16T10:22:29.068Z,67.30
2023-05-16T10:27:34.187Z,67.40
2023-05-16T10:32:42.687Z,67.50
2023-05-16T10:37:49.805Z,67.70
2023-05-16T10:42:58.673Z,67.70
2023-05-16T10:48:05.763Z,67.80
2023-05-16T10:53:21.543Z,67.90
2023-05-16T10:58:27.133Z,67.90
2023-05-16T11:03:32.315Z,68.00
2023-05-16T11:08:38.776Z,67.80
2023-05-16T11:13:56.611Z,68.00
2023-05-16T11:19:08.119Z,68.00
2023-05-16T11:24:33.288Z,68.00
2023-05-16T11:29:38.698Z,67.90
2023-05-16T11:34:43.962Z,68.10
2023-05-16T11:39:50.201Z,68.20
2023-05-16T11:45:09.953Z,68.10
2023-05-16T11:50:16.690Z,68.20
2023-05-16T11:55:40.364Z,68.10
2023-05-16T12:00:51.140Z,68.10
2023-05-16T12:05:57.481Z,68.30
2023-05-16T12:11:03.788Z,68.20
2023-05-16T12:16:09.075Z,68.00
2023-05-16T12:21:14.010Z,68.00
2023-05-16T12:26:31.164Z,68.10
2023-05-16T12:31:40.023Z,68.30
2023-05-16T12:36:45.343Z,68.00
2023-05-16T12:41:54.354Z,68.00
2023-05-16T12:46:59.490Z,68.10
2023-05-16T12:52:06.045Z,68.00
2023-05-16T12:57:12.407Z,68.10
2023-05-16T13:02:18.416Z,68.10
2023-05-16T13:07:23.309Z,68.10
2023-05-16T13:12:29.673Z,68.00
2023-05-16T13:17:34.377Z,68.10
2023-05-16T13:22:39.356Z,68.20
2023-05-16T13:27:45.529Z,68.20
2023-05-16T13:32:50.552Z,68.20
2023-05-16T13:37:55.445Z,68.30
2023-05-16T13:43:02.080Z,68.20
2023-05-16T13:48:07.832Z,68.40
2023-05-16T13:53:12.511Z,68.30
2023-05-16T13:58:18.578Z,68.20
2023-05-16T14:03:23.592Z,68.30
2023-05-16T14:08:28.285Z,68.40
2023-05-16T14:13:37.461Z,68.30
2023-05-16T14:18:43.577Z,68.40
2023-05-16T14:23:48.936Z,68.20
2023-05-16T14:28:56.430Z,68.20
2023-05-16T14:34:01.083Z,68.30
2023-05-16T14:39:05.886Z,68.20
2023-05-16T14:44:12.992Z,68.20
2023-05-16T14:49:17.654Z,68.20
2023-05-16T14:54:23.421Z,68.20
2023-05-16T14:59:29.590Z,68.20
2023-05-16T15:04:35.260Z,68.20
2023-05-16T15:09:40.027Z,68.30
2023-05-16T15:14:46.062Z,68.10
2023-05-16T15:19:52.540Z,68.20
2023-05-16T15:24:57.684Z,68.10
2023-05-16T15:30:04.057Z,68.20
2023-05-16T15:35:09.688Z,68.30
2023-05-16T15:40:16.697Z,68.30
2023-05-16T15:45:23.122Z,68.50
2023-05-16T15:50:27.878Z,68.50
2023-05-16T15:55:32.703Z,68.30
2023-05-16T16:00:41.341Z,68.00
2023-05-16T16:05:46.064Z,68.30
2023-05-16T16:10:50.787Z,68.30
2023-05-16T16:15:58.577Z,68.20
2023-05-16T16:21:03.464Z,65.60
2023-05-16T16:26:08.407Z,61.60
2023-05-16T16:31:14.644Z,58.00
2023-05-16T16:36:20.011Z,58.40
2023-05-16T16:41:24.982Z,58.90
2023-05-16T16:46:31.514Z,58.40
2023-05-16T16:51:36.318Z,57.60
2023-05-16T16:56:41.518Z,56.10
2023-05-16T17:01:49.774Z,56.10
2023-05-16T17:06:54.359Z,56.70
2023-05-16T17:12:04.817Z,57.10
2023-05-16T17:17:11.207Z,57.20
2023-05-16T17:22:16.281Z,57.80
2023-05-16T17:27:20.941Z,58.30
2023-05-16T17:32:26.466Z,57.20
2023-05-16T17:37:32.724Z,58.30
2023-05-16T17:42:37.621Z,57.80
2023-05-16T17:47:44.282Z,57.50
2023-05-16T17:52:49.056Z,58.00
2023-05-16T17:57:53.628Z,57.70
2023-05-16T18:03:00.052Z,58.20
2023-05-16T18:08:06.513Z,58.30
2023-05-16T18:13:13.426Z,58.40
2023-05-16T18:18:19.765Z,59.30
2023-05-16T18:23:25.049Z,61.20
2023-05-16T18:28:31.093Z,61.60
2023-05-16T18:33:37.479Z,62.10
2023-05-16T18:38:42.199Z,62.70
2023-05-16T18:43:47.061Z,62.40
2023-05-16T18:48:58.015Z,60.90
2023-05-16T18:54:02.177Z,60.10
2023-05-16T18:59:07.845Z,61.50
2023-05-16T19:04:14.115Z,62.20
2023-05-16T19:09:19.830Z,62.50
2023-05-16T19:14:24.531Z,62.80
2023-05-16T19:19:32.063Z,63.10
2023-05-16T19:24:37.081Z,63.30
2023-05-16T19:29:41.825Z,63.60
2023-05-16T19:34:48.146Z,64.20
2023-05-16T19:39:52.864Z,64.20
2023-05-16T19:44:57.560Z,64.30
2023-05-16T19:50:05.162Z,64.50
2023-05-16T19:55:10.894Z,64.80
2023-05-16T20:00:17.293Z,64.80
2023-05-16T20:05:23.588Z,65.20
2023-05-16T20:10:28.085Z,65.30
2023-05-16T20:15:32.810Z,65.40
2023-05-16T20:20:38.792Z,65.70
2023-05-16T20:25:43.798Z,65.60
2023-05-16T20:30:48.388Z,65.90
2023-05-16T20:35:55.964Z,66.10
2023-05-16T20:41:01.360Z,66.20
2023-05-16T20:46:06.478Z,66.40
2023-05-16T20:51:12.476Z,66.70
2023-05-16T20:56:17.221Z,67.00
2023-05-16T21:01:22.843Z,67.00
2023-05-16T21:06:28.867Z,67.00
2023-05-16T21:11:34.175Z,67.30
2023-05-16T21:16:38.798Z,67.30
2023-05-16T21:21:45.025Z,67.50
2023-05-16T21:26:49.632Z,67.40
2023-05-16T21:31:54.551Z,67.60
2023-05-16T21:37:00.746Z,67.70
2023-05-16T21:42:05.798Z,67.70
2023-05-16T21:47:10.467Z,67.90
2023-05-16T21:52:16.386Z,67.90
2023-05-16T21:57:21.136Z,68.00
2023-05-16T22:02:25.913Z,68.10
2023-05-16T22:07:31.975Z,68.20
2023-05-16T22:13:38.635Z,68.70
2023-05-16T22:18:41.941Z,69.70
2023-05-16T22:23:45.327Z,69.30
2023-05-16T22:28:49.945Z,70.00
2023-05-16T22:33:53.269Z,70.80
2023-05-16T22:38:56.593Z,71.00
2023-05-16T22:44:01.188Z,71.50
2023-05-16T22:49:04.504Z,71.70
2023-05-16T22:54:07.802Z,71.60
2023-05-16T22:59:14.882Z,71.90
2023-05-16T23:04:18.209Z,71.70
2023-05-16T23:09:21.476Z,72.00
2023-05-16T23:14:26.111Z,72.40
2023-05-16T23:19:29.367Z,73.10
2023-05-16T23:24:32.743Z,73.90
2023-05-16T23:29:37.371Z,74.10
2023-05-16T23:34:40.858Z,74.90
2023-05-16T23:39:44.183Z,74.60
2023-05-16T23:44:48.792Z,75.10
2023-05-16T23:49:52.043Z,75.70
2023-05-16T23:54:56.453Z,75.40
